Date,TemperatureHighF,TemperatureAvgF,TemperatureLowF,DewpointHighF,DewpointAvgF,DewpointLowF,HumidityHigh,HumidityAvg,HumidityLow,PressureMaxIn,PressureMinIn,WindSpeedMaxMPH,WindSpeedAvgMPH,GustSpeedMaxMPH,PrecipitationSumIn
2013-1-1,23.6,16.7,7.9,20.2,14.8,6.8,100,92,79,30.32,30.16,14,4,14,0.00
2013-1-2,34.1,26.5,13.3,29.1,21.4,8.5,100,81,66,30.30,30.10,21,5,21,0.00
2013-1-3,26.1,21.9,11.9,21.3,17.0,11.2,99,81,66,30.43,30.29,15,3,15,0.00
2013-1-4,35.0,18.2,10.5,20.9,11.1,4.5,100,74,49,30.32,30.10,13,3,13,0.00
2013-1-5,41.2,26.4,12.1,26.4,17.1,7.3,92,69,50,30.29,30.03,17,3,17,0.00
2013-1-6,36.5,26.9,16.4,25.2,18.8,11.8,87,72,49,30.33,29.98,25,5,25,0.00
2013-1-7,41.6,29.9,19.2,28.3,22.6,18.0,100,75,48,30.00,29.89,21,4,21,0.00
2013-1-8,46.1,31.5,15.4,31.6,24.0,13.0,100,75,53,30.17,29.81,12,2,12,0.00
2013-1-9,47.0,35.8,23.9,32.3,27.0,20.0,87,71,51,30.40,30.16,19,5,19,0.00
2013-1-10,36.5,35.0,31.5,36.5,32.5,26.6,100,91,73,30.19,29.55,19,6,19,0.01
2013-1-11,39.9,33.8,17.8,39.9,33.0,12.7,100,97,79,29.88,29.26,28,7,28,0.01
2013-1-12,19.1,13.4,7.0,13.1,5.2,0.4,83,70,56,30.25,29.88,25,5,25,0.00
2013-1-13,19.1,10.0,2.0,7.7,2.7,-2.1,85,73,55,30.41,30.25,13,2,13,0.00
2013-1-14,24.2,13.2,1.1,15.0,6.4,-1.4,100,76,46,30.52,30.32,10,1,10,0.00
2013-1-15,28.1,18.2,7.7,17.7,11.0,1.7,100,77,34,30.32,30.05,16,3,16,0.00
2013-1-16,49.9,37.7,23.3,31.6,26.0,17.2,100,65,35,30.25,29.97,22,3,22,0.00
2013-1-17,49.1,35.7,24.2,31.2,26.4,22.5,100,71,38,30.43,30.18,14,2,14,0.00
2013-1-18,58.1,40.5,25.0,26.4,22.6,14.3,99,54,21,30.18,29.86,17,3,17,0.00
2013-1-19,56.2,41.8,30.4,27.5,21.4,14.1,84,47,20,30.22,29.85,24,3,24,0.00
2013-1-20,35.2,23.7,15.9,32.0,22.2,15.4,100,94,71,30.47,30.19,21,2,21,0.00
2013-1-21,23.0,18.3,14.3,20.0,17.1,14.3,100,95,76,30.43,30.27,7,1,7,0.00
2013-1-22,29.1,18.4,7.7,18.1,14.1,7.7,100,85,55,30.31,30.18,8,2,8,0.00
2013-1-23,36.0,25.4,15.6,23.9,17.7,8.9,97,73,54,30.43,30.14,14,4,14,0.00
2013-1-24,22.2,15.0,5.4,17.0,9.7,5.4,100,81,60,30.43,30.12,17,4,17,0.00
2013-1-25,49.9,38.1,20.6,25.6,22.6,16.7,92,55,30,30.23,30.08,14,4,14,0.00
2013-1-26,54.2,40.8,30.1,41.6,28.5,24.5,100,64,32,30.09,29.78,32,6,32,0.00
2013-1-27,50.7,41.6,36.9,46.7,40.8,36.3,100,97,72,29.78,29.61,14,2,14,0.06
2013-1-28,42.9,38.2,32.1,42.8,38.2,32.1,100,100,100,29.73,29.53,24,3,24,0.02
2013-1-29,36.5,33.9,28.5,36.5,33.9,28.5,100,100,94,29.78,29.61,24,8,24,0.00
2013-1-30,30.9,23.7,16.7,28.8,16.8,9.3,100,76,44,29.96,29.78,34,7,34,0.00
2013-1-31,22.7,17.1,10.4,21.0,6.7,-4.1,100,65,40,30.41,29.91,32,7,32,0.00
2013-2-1,50.1,31.5,11.9,34.2,22.5,1.7,100,73,37,30.36,29.95,27,9,27,0.00
2013-2-2,52.8,40.4,25.7,34.7,25.1,14.8,100,62,23,30.19,30.08,22,4,22,0.00
2013-2-3,50.2,38.0,24.8,28.0,23.8,18.1,100,60,28,30.19,29.76,28,6,28,0.00
2013-2-4,49.5,38.0,31.0,32.1,26.6,21.8,100,65,36,29.94,29.77,20,5,20,0.00
2013-2-5,53.1,40.8,30.1,31.3,24.4,18.3,100,55,26,30.01,29.79,18,3,18,0.00
2013-2-6,58.6,44.1,33.7,39.4,32.6,27.3,83,65,40,29.89,29.66,26,8,26,0.00
2013-2-7,51.6,40.3,29.8,31.5,24.6,11.2,100,58,22,30.16,29.86,21,6,21,0.00
2013-2-8,44.9,33.1,23.3,33.4,29.1,23.3,100,87,54,30.17,29.87,27,7,27,0.00
2013-2-9,49.2,37.8,29.0,44.6,34.1,27.7,100,89,47,29.87,29.36,27,8,27,0.09
2013-2-10,37.8,31.9,26.4,37.8,28.3,19.1,100,87,70,30.00,29.11,40,8,40,0.19
2013-2-11,36.2,26.4,17.5,20.2,16.3,10.3,93,67,36,30.19,29.99,18,3,18,0.01
2013-2-12,41.2,30.5,20.2,23.3,16.2,5.4,87,59,24,30.14,29.92,18,4,18,0.01
2013-2-13,51.3,38.8,24.7,32.9,21.8,16.0,78,53,28,29.93,29.75,19,4,19,0.00
2013-2-14,39.1,33.2,23.5,33.5,24.1,14.0,95,70,41,30.32,29.85,36,8,36,0.00
2013-2-15,33.4,23.3,14.0,23.9,13.5,4.6,100,70,34,30.42,30.32,31,5,31,0.00
2013-2-16,54.5,34.7,14.4,28.0,21.2,7.8,89,61,31,30.35,29.87,34,6,34,0.00
2013-2-17,63.2,43.9,26.1,30.9,22.6,9.4,99,51,12,29.87,29.43,32,6,32,0.00
2013-2-18,41.5,35.1,26.4,31.3,21.6,13.6,79,58,38,30.13,29.47,40,17,40,0.00
2013-2-19,32.9,23.5,15.2,20.4,11.4,1.5,97,62,39,30.32,30.13,18,4,18,0.00
2013-2-20,22.4,17.3,11.2,22.4,12.2,-0.8,100,82,46,30.25,30.05,11,3,12,0.00
2013-2-21,18.6,17.0,13.1,18.6,17.0,13.1,100,100,100,30.08,29.92,17,6,17,0.00
2013-2-22,23.3,15.1,8.3,18.3,12.8,8.3,100,91,68,30.09,30.00,10,2,10,0.13
2013-2-23,32.1,21.9,10.9,29.5,20.6,10.7,100,95,80,30.04,29.76,14,4,14,0.01
2013-2-24,31.5,25.1,18.6,31.5,25.1,18.6,100,100,100,30.09,29.80,18,4,18,0.01
2013-2-25,33.8,29.6,21.4,32.1,28.1,21.0,100,94,76,30.08,29.92,16,5,16,0.05
2013-2-26,31.8,23.0,12.1,28.1,20.9,11.9,100,92,68,30.00,29.84,19,4,19,0.00
2013-2-27,32.4,29.1,25.8,31.2,25.6,17.0,100,87,67,30.20,29.98,28,12,28,0.00
2013-2-28,34.4,26.9,21.0,31.1,25.9,21.0,100,97,79,30.27,30.19,21,5,21,0.00
2013-3-1,34.0,25.4,12.3,29.6,23.9,12.3,100,95,75,30.35,30.24,14,2,14,0.00
2013-3-2,40.3,30.8,15.9,38.2,29.2,15.9,100,94,81,30.34,29.95,13,4,13,0.00
2013-3-3,49.6,41.1,33.8,38.3,35.9,33.1,100,83,57,29.95,29.51,13,3,13,0.00
2013-3-4,44.1,36.1,24.7,37.1,25.1,8.1,100,68,33,30.16,29.51,34,10,34,0.00
2013-3-5,35.3,27.4,21.0,21.9,14.2,9.6,77,58,37,30.39,30.16,42,6,42,0.00
2013-3-6,36.9,27.1,15.9,28.2,21.5,14.0,100,80,59,30.37,30.01,17,3,17,0.00
2013-3-7,45.1,34.7,24.7,35.8,29.0,24.7,100,81,53,30.05,29.96,12,2,12,0.00
2013-3-8,51.9,40.6,30.3,51.9,39.1,30.3,100,95,72,30.02,29.64,16,3,16,0.00
2013-3-9,60.2,42.9,30.9,58.1,42.8,30.7,100,100,71,29.79,29.39,41,12,41,0.02
2013-3-10,31.5,24.7,19.9,31.5,21.0,14.7,100,86,67,30.10,29.80,50,18,50,0.00
2013-3-11,51.1,33.7,17.3,31.2,22.5,14.6,100,69,29,30.09,29.84,30,4,30,0.00
2013-3-12,40.8,34.8,27.2,30.6,14.9,2.0,80,47,21,30.33,29.99,33,8,33,0.00
2013-3-13,60.7,40.3,21.0,33.9,20.7,11.9,86,49,26,30.32,30.05,26,6,26,0.00
2013-3-14,71.5,54.6,39.2,35.2,31.2,24.7,78,46,18,30.09,29.88,19,3,19,0.00
2013-3-15,77.4,58.2,41.8,39.5,31.5,18.0,72,42,11,29.91,29.56,26,6,26,0.00
2013-3-16,46.2,35.9,30.7,38.8,28.4,20.5,100,76,51,30.06,29.73,20,7,20,0.00
2013-3-17,36.3,30.5,26.1,35.8,30.0,24.2,100,98,76,30.02,29.63,25,4,25,0.02
2013-3-18,43.5,35.7,24.5,35.6,21.4,6.0,100,62,25,30.02,29.73,28,7,28,0.01
2013-3-19,48.6,37.1,29.5,35.6,20.2,7.8,100,52,24,30.31,29.98,31,7,31,0.00
2013-3-20,44.5,31.8,16.1,19.0,11.6,-1.7,76,46,22,30.39,29.91,19,5,19,0.00
2013-3-21,44.6,34.9,26.2,30.3,18.3,11.6,100,53,29,29.96,29.67,24,5,24,0.00
2013-3-22,39.5,32.6,28.2,34.7,31.0,28.2,100,94,71,29.95,29.80,12,4,12,0.03
2013-3-23,32.2,29.2,25.1,32.2,28.5,19.3,100,97,77,30.17,29.93,27,10,27,0.00
2013-3-24,32.4,24.1,17.3,20.7,14.3,4.5,91,68,33,30.26,30.11,31,12,31,0.00
2013-3-25,30.3,21.6,15.2,17.4,12.9,7.1,94,70,45,30.40,30.26,26,7,26,0.00
2013-3-26,44.8,29.2,13.6,25.0,16.7,8.4,100,65,24,30.40,30.09,25,6,25,0.00
2013-3-27,53.8,39.6,29.1,33.9,26.9,23.4,100,64,33,30.14,30.01,14,2,14,0.00
2013-3-28,62.9,47.0,30.0,35.1,28.1,20.5,100,54,22,30.14,29.98,21,4,21,0.00
2013-3-29,68.3,53.2,37.3,51.6,37.7,26.5,100,58,34,30.09,29.83,25,6,25,0.10
2013-3-30,62.6,50.9,40.9,52.6,43.7,32.6,100,80,35,29.99,29.78,21,6,21,0.03
2013-3-31,65.8,49.7,37.5,43.5,32.7,21.3,100,60,23,30.02,29.75,25,6,36,0.00
2013-4-1,45.7,36.5,28.7,34.6,26.4,20.1,100,70,37,30.26,30.02,26,5,26,0.00
2013-4-2,54.1,40.5,27.2,27.3,23.1,18.9,86,54,26,30.21,30.11,22,6,22,0.00
2013-4-3,53.6,40.8,29.8,30.5,24.5,19.8,80,55,27,30.22,30.10,28,8,29,0.00
2013-4-4,61.0,44.3,28.5,41.2,33.6,28.4,100,71,33,30.13,30.00,16,3,16,0.00
2013-4-5,76.1,56.1,37.5,42.1,34.4,25.9,96,51,18,30.01,29.47,36,9,36,0.00
2013-4-6,69.9,58.7,49.6,43.1,35.2,21.8,69,44,18,29.71,29.42,38,8,38,0.00
2013-4-7,60.4,53.3,46.1,55.3,41.2,26.9,100,66,34,29.71,29.50,18,2,18,0.07
2013-4-8,69.6,54.4,40.2,61.3,51.4,40.2,100,91,51,29.57,29.41,40,5,43,0.16
2013-4-9,49.1,28.1,21.4,40.3,28.1,21.4,100,100,100,30.15,29.41,43,19,43,1.04
2013-4-10,27.6,24.6,21.9,27.3,24.6,21.8,100,100,99,30.15,29.96,34,17,34,0.00
2013-4-11,32.9,27.6,22.2,29.4,25.8,22.2,100,93,76,29.98,29.76,25,6,25,0.00
2013-4-12,45.4,35.8,26.1,41.1,32.2,26.1,100,88,57,29.98,29.84,25,5,25,0.00
2013-4-13,64.5,46.8,29.1,53.2,39.6,29.1,100,80,46,29.98,29.32,39,8,39,0.00
2013-4-14,55.0,47.8,37.3,52.0,33.4,13.6,100,64,22,29.68,29.14,28,7,28,0.00
2013-4-15,43.2,36.2,30.9,29.7,24.3,16.2,83,62,46,30.03,29.66,24,7,24,0.00
2013-4-16,41.8,37.2,31.3,33.5,30.3,25.3,100,77,55,30.15,30.01,22,7,22,0.00
2013-4-17,40.6,34.2,30.0,35.9,33.1,28.9,100,96,72,30.07,29.84,39,14,42,0.00
2013-4-18,32.4,29.0,26.3,30.3,24.5,18.8,100,84,60,30.08,29.87,40,14,40,0.00
2013-4-19,46.7,35.7,21.8,34.5,26.2,17.8,92,69,49,30.06,29.97,26,6,26,0.00
2013-4-20,54.4,41.5,31.0,38.0,29.5,23.9,83,64,41,30.06,29.92,17,3,17,0.00
2013-4-21,65.5,49.1,34.6,47.0,39.3,33.1,100,74,32,29.99,29.87,27,5,27,0.00
2013-4-22,47.0,38.4,31.0,45.7,38.4,31.0,100,100,95,30.30,29.84,32,11,32,0.38
2013-4-23,38.0,31.5,26.4,31.5,22.1,11.2,100,72,36,30.30,30.17,28,11,28,0.00
2013-4-24,56.9,39.7,24.2,34.1,22.4,4.7,96,58,13,30.23,30.05,27,5,27,0.00
2013-4-25,70.8,50.3,30.7,38.0,28.8,18.1,100,55,15,30.17,29.81,40,12,40,0.00
2013-4-26,69.4,57.4,45.8,52.8,30.7,20.6,100,39,16,30.04,29.82,27,8,27,0.00
2013-4-27,76.0,58.6,41.1,55.1,43.5,33.7,100,66,22,30.04,29.77,21,5,21,0.00
2013-4-28,85.9,64.8,46.8,51.0,38.5,19.4,100,49,9,29.78,29.52,22,8,25,0.00
2013-4-29,80.7,65.8,53.2,51.2,42.4,34.5,73,46,20,29.66,29.32,24,6,24,0.00
2013-4-30,67.1,58.4,48.9,54.1,42.5,23.3,86,58,27,29.82,29.30,27,11,32,0.00
2013-5-1,52.5,39.0,35.8,45.2,38.3,32.9,100,97,66,30.48,29.80,35,15,35,0.29
2013-5-2,50.2,42.2,35.9,34.9,28.5,15.5,92,61,26,30.62,30.39,30,8,30,0.01
2013-5-3,53.8,44.0,30.7,35.1,26.8,18.0,100,55,26,30.40,30.03,24,5,24,0.00
2013-5-4,50.1,42.7,32.1,35.0,25.6,16.1,78,52,28,30.13,30.03,32,12,32,0.00
2013-5-5,60.5,48.2,34.0,42.4,29.1,17.4,87,52,20,30.16,30.02,19,6,19,0.00
2013-5-6,68.6,55.6,39.9,49.8,38.8,27.2,100,61,23,30.06,29.89,19,3,19,0.00
2013-5-7,63.7,57.1,51.7,60.1,51.8,34.2,100,84,46,29.91,29.76,26,4,26,0.10
2013-5-8,70.3,60.4,51.9,60.3,53.8,43.8,100,82,41,29.82,29.75,16,3,16,0.07
2013-5-9,60.4,55.7,51.9,57.3,55.1,49.7,100,98,81,29.98,29.78,24,8,24,0.00
2013-5-10,70.3,59.0,46.4,53.9,46.7,34.4,100,69,29,30.03,29.91,16,2,20,0.00
2013-5-11,62.3,56.1,48.8,47.9,32.8,19.8,71,44,21,30.25,29.98,25,8,25,0.00
2013-5-12,72.5,57.4,41.9,47.5,35.9,24.6,74,46,27,30.15,29.90,15,3,15,0.01
2013-5-13,90.3,71.2,49.9,53.0,45.3,36.1,100,50,15,29.93,29.68,25,6,25,0.00
2013-5-14,97.3,79.3,61.8,57.2,44.4,33.7,59,33,11,29.70,29.48,25,6,25,0.00
2013-5-15,77.7,69.4,60.9,55.1,45.5,37.9,58,43,27,29.73,29.57,25,8,25,0.00
2013-5-16,79.6,65.4,58.1,63.9,57.3,44.7,100,77,38,29.69,29.59,46,4,46,0.04
2013-5-17,84.7,69.7,54.5,64.8,58.0,50.7,100,72,32,29.72,29.58,21,4,21,0.00
2013-5-18,78.6,69.6,59.2,70.8,64.4,39.3,100,85,34,29.63,29.39,42,4,42,0.28
2013-5-19,62.0,60.2,59.0,60.1,58.2,54.0,100,93,79,29.55,29.48,17,4,17,0.00
2013-5-20,64.7,58.3,54.1,57.2,50.7,43.5,100,78,48,29.63,29.49,24,6,24,0.09
2013-5-21,59.9,54.6,49.2,50.5,47.6,40.5,98,78,51,29.75,29.63,28,5,28,0.00
2013-5-22,65.8,55.3,47.1,52.2,48.2,44.0,100,79,52,29.95,29.73,22,7,22,0.00
2013-5-23,66.8,56.1,48.3,52.8,49.9,45.2,100,82,48,30.09,29.94,20,5,20,0.00
2013-5-24,76.8,63.3,54.8,68.4,58.8,51.6,100,87,60,30.07,29.77,26,7,26,0.00
2013-5-25,87.6,71.9,59.2,66.0,60.3,34.6,100,72,19,29.87,29.59,53,6,53,0.41
2013-5-26,88.6,75.4,64.5,69.6,65.7,58.1,100,75,37,29.65,29.47,26,6,26,0.00
2013-5-27,73.7,67.9,60.7,72.1,65.4,58.3,100,92,76,29.60,29.43,21,4,21,0.00
2013-5-28,75.3,66.9,58.1,68.9,60.2,50.3,100,82,44,29.59,29.40,18,4,18,0.00
2013-5-29,84.0,66.7,57.0,69.6,62.6,53.1,100,89,47,29.47,29.17,29,6,29,1.20
2013-5-30,75.6,63.6,55.4,57.8,50.7,39.1,100,68,28,29.52,29.34,30,7,30,0.01
2013-5-31,73.7,62.2,50.1,49.3,42.8,31.8,87,53,23,29.69,29.52,29,6,29,0.00
2013-6-1,62.7,56.8,52.0,49.7,46.9,42.2,91,70,50,30.02,29.65,36,10,36,0.00
2013-6-2,71.5,58.3,42.9,49.7,45.7,40.5,100,66,38,30.08,29.81,12,2,12,0.00
2013-6-3,80.5,65.7,52.0,61.2,53.2,44.3,87,66,43,29.84,29.50,27,6,27,0.00
2013-6-4,69.6,66.3,62.4,65.3,57.6,51.0,100,75,53,29.91,29.57,19,5,19,0.00
2013-6-5,66.0,58.6,50.8,55.1,49.1,44.6,97,72,47,30.01,29.86,24,8,24,0.07
2013-6-6,70.1,60.2,45.8,52.1,49.1,45.8,100,69,43,29.98,29.85,13,3,13,0.00
2013-6-7,78.5,65.8,49.9,55.8,50.3,43.7,100,61,31,29.93,29.65,20,2,20,0.00
2013-6-8,71.5,63.5,58.1,64.0,58.3,50.3,100,83,54,29.72,29.48,43,4,43,0.03
2013-6-9,78.1,67.5,52.9,54.8,50.2,40.1,100,58,27,29.77,29.70,28,4,28,0.00
2013-6-10,91.8,75.1,56.7,70.7,56.7,47.1,80,56,31,29.73,29.51,18,3,19,0.00
2013-6-11,99.4,84.9,72.7,70.8,59.3,45.4,74,44,23,29.68,29.31,19,3,19,0.08
2013-6-12,81.8,73.4,61.3,70.5,63.5,54.3,100,73,41,29.94,29.40,29,10,29,0.00
2013-6-13,81.6,67.9,56.2,62.1,55.8,48.0,100,69,39,30.00,29.77,24,3,24,0.00
2013-6-14,93.8,76.8,64.2,71.3,64.7,57.0,100,69,34,29.86,29.55,42,7,42,0.05
2013-6-15,81.4,74.0,65.2,69.3,64.7,52.6,100,74,43,29.79,29.60,15,4,19,0.00
2013-6-16,84.3,71.5,64.2,71.6,65.1,58.6,100,82,52,29.92,29.73,24,2,24,0.00
2013-6-17,79.8,70.1,59.3,63.9,60.7,56.7,100,75,46,29.95,29.77,10,1,10,0.00
2013-6-18,79.2,70.9,60.5,66.1,61.9,55.3,100,75,50,29.96,29.76,15,2,15,1.74
2013-6-19,83.0,72.6,62.1,66.9,63.0,57.9,100,75,44,29.81,29.61,20,5,20,0.00
2013-6-20,90.3,78.8,67.4,72.7,67.3,62.2,100,71,41,29.66,29.49,26,7,26,0.00
2013-6-21,94.3,83.4,67.8,68.4,61.3,52.7,81,49,25,29.66,29.43,32,11,32,0.00
2013-6-22,89.9,75.7,66.8,71.9,64.1,58.6,89,69,44,29.66,29.42,25,5,25,0.00
2013-6-23,77.7,68.7,60.5,72.5,65.5,56.2,100,90,54,29.74,29.49,28,2,28,0.37
2013-6-24,85.7,75.0,63.1,74.9,68.3,58.5,100,81,48,29.74,29.43,45,3,45,0.12
2013-6-25,88.6,78.3,70.3,72.5,65.1,49.2,100,68,26,29.60,29.44,26,4,26,0.00
2013-6-26,73.5,73.3,73.3,63.1,62.9,62.9,70,70,70,29.60,29.60,0,0,2,0.00
2013-6-27,73.3,73.3,73.3,62.9,62.9,62.9,70,70,70,29.60,29.60,0,0,2,0.00
2013-6-28,73.3,73.3,73.3,62.9,62.9,62.9,70,70,70,29.60,29.60,0,0,2,0.00
2013-6-29,78.6,74.4,69.9,62.9,58.9,44.5,70,60,30,29.88,29.60,19,2,19,0.00
2013-6-30,76.5,69.3,59.3,60.6,56.3,49.8,90,65,41,30.01,29.88,13,4,13,0.00
2013-7-1,74.7,67.4,58.3,57.9,51.5,41.9,91,59,32,30.11,30.00,10,1,10,0.00
2013-7-2,78.5,69.4,57.8,57.7,49.2,38.9,83,52,27,30.07,29.93,6,0,6,0.00
2013-7-3,84.3,71.3,61.0,56.5,50.1,41.1,72,51,23,29.96,29.72,13,3,16,0.00
2013-7-4,89.5,75.5,62.1,54.5,48.9,41.3,69,42,20,29.77,29.62,18,5,18,0.00
2013-7-5,90.3,77.9,65.5,62.3,55.1,46.5,66,47,28,29.65,29.55,15,4,15,0.00
2013-7-6,95.4,80.7,67.9,71.5,62.3,55.0,79,56,27,29.57,29.49,20,3,20,0.00
2013-7-7,87.4,79.0,67.9,74.1,68.0,60.9,100,70,49,29.73,29.54,12,1,12,0.00
2013-7-8,89.5,79.1,70.6,75.4,70.8,63.6,100,79,46,29.79,29.64,14,2,14,0.04
2013-7-9,90.5,79.2,70.6,76.2,70.1,64.7,97,75,48,29.87,29.67,18,3,18,0.01
2013-7-10,80.7,74.9,69.8,74.0,67.0,59.5,100,78,55,29.98,29.81,14,3,14,0.00
2013-7-11,89.7,77.4,67.3,71.9,68.4,64.7,100,76,46,29.89,29.69,19,3,19,0.00
2013-7-12,99.9,84.5,71.1,71.7,66.0,56.3,100,59,24,29.73,29.56,18,6,18,0.00
2013-7-13,101.7,87.4,75.6,73.7,64.6,54.1,76,50,22,29.66,29.55,17,5,17,0.00
2013-7-14,82.6,76.3,70.9,73.5,71.0,65.6,100,84,66,29.95,29.60,14,2,14,0.00
2013-7-15,83.8,73.6,63.1,70.9,61.9,52.0,100,71,34,30.01,29.93,12,1,12,0.00
2013-7-16,82.2,72.4,64.2,68.3,63.9,58.4,100,78,45,30.10,29.97,21,6,21,0.00
2013-7-17,87.2,76.0,63.7,67.0,63.4,58.6,100,69,41,30.12,29.95,19,6,19,0.00
2013-7-18,91.8,80.3,68.6,69.6,63.7,56.5,100,61,31,29.97,29.70,21,10,27,0.00
2013-7-19,83.8,77.3,69.8,70.3,64.9,58.8,90,67,48,29.81,29.72,17,3,17,0.00
2013-7-20,83.8,73.9,65.5,72.8,67.9,58.7,100,83,55,29.86,29.67,31,1,31,0.00
2013-7-21,90.3,73.7,59.3,71.1,61.4,51.0,100,72,27,29.86,29.59,31,3,31,0.09
2013-7-22,89.7,78.4,64.2,75.0,64.9,50.4,100,66,37,29.72,29.53,18,3,18,0.20
2013-7-23,84.1,74.0,64.5,69.8,64.5,57.3,99,74,41,29.84,29.65,28,4,28,0.00
2013-7-24,85.5,73.9,62.1,69.4,65.1,56.8,100,78,38,29.96,29.82,12,2,12,0.00
2013-7-25,77.0,71.8,65.3,72.0,65.5,53.3,100,82,50,29.91,29.81,17,3,17,0.09
2013-7-26,74.7,69.0,64.7,68.9,60.4,52.9,100,76,47,30.06,29.89,18,4,18,0.00
2013-7-27,64.5,59.8,56.5,59.0,56.0,51.8,100,88,66,30.04,29.93,10,1,10,0.29
2013-7-28,61.5,59.1,56.7,60.1,57.5,53.0,100,95,80,29.95,29.87,8,0,10,0.00
2013-7-29,69.1,65.1,59.6,68.9,65.1,59.6,100,100,100,29.90,29.80,10,1,10,0.22
2013-7-30,79.4,70.0,65.2,72.1,67.8,65.2,100,93,71,30.03,29.86,17,1,17,0.00
2013-7-31,80.1,71.8,62.9,69.8,66.6,62.6,100,85,60,30.04,29.91,36,2,36,0.13
2013-8-1,87.6,77.1,64.0,72.2,68.4,63.6,100,77,48,29.97,29.59,26,5,26,0.79
2013-8-2,80.5,71.1,62.7,72.8,67.1,62.6,100,89,64,29.83,29.65,15,3,17,0.17
2013-8-3,72.8,68.3,63.7,70.3,66.8,63.7,100,95,77,30.05,29.82,17,3,17,0.00
2013-8-4,77.2,69.2,63.4,73.7,68.1,62.6,100,97,81,30.00,29.81,10,1,10,0.00
2013-8-5,80.9,74.6,69.1,80.9,74.6,69.1,100,100,95,29.85,29.67,14,3,14,0.01
2013-8-6,85.5,76.9,71.1,81.6,75.4,71.1,100,96,70,29.72,29.62,14,2,14,0.00
2013-8-7,79.8,74.0,69.3,76.3,68.7,57.1,100,85,49,29.84,29.70,14,2,14,0.00
2013-8-8,76.3,70.0,65.3,73.2,68.6,58.8,100,96,57,29.91,29.79,7,0,7,0.00
2013-8-9,80.5,70.2,60.4,73.5,64.8,57.8,100,86,49,29.99,29.90,6,1,6,0.00
2013-8-10,83.4,72.3,60.5,68.8,61.5,54.8,100,73,40,30.02,29.87,18,4,18,0.00
2013-8-11,84.9,73.5,63.4,75.9,67.2,62.1,100,83,50,29.92,29.80,17,5,18,0.00
2013-8-12,79.4,70.9,62.1,72.9,67.1,62.1,100,89,60,29.93,29.86,12,1,12,0.00
2013-8-13,76.1,68.7,62.1,71.5,66.2,59.0,100,93,59,30.03,29.90,24,2,24,0.06
2013-8-14,74.6,68.0,63.4,69.8,65.7,63.3,100,93,71,30.01,29.86,22,5,22,0.00
2013-8-15,79.2,69.8,62.1,73.9,65.4,55.5,100,88,47,29.92,29.81,22,4,22,0.06
2013-8-16,73.2,67.5,63.7,71.1,66.9,63.5,100,98,84,30.00,29.89,8,1,8,0.00
2013-8-17,74.7,68.8,64.0,71.0,66.9,64.0,100,94,79,30.00,29.88,14,3,14,0.00
2013-8-18,78.1,69.9,61.8,69.9,66.5,61.8,100,90,66,29.93,29.83,18,5,18,0.00
2013-8-19,88.6,75.5,64.0,70.7,66.8,61.7,100,78,41,29.88,29.73,16,6,16,0.00
2013-8-20,93.6,79.1,65.2,70.2,64.7,54.5,100,68,28,29.76,29.68,19,8,19,0.00
2013-8-21,95.6,81.3,67.3,69.9,62.1,51.5,100,58,25,29.76,29.67,17,6,17,0.00
2013-8-22,80.5,74.7,67.8,75.0,69.0,58.7,100,84,48,29.86,29.71,16,3,16,0.00
2013-8-23,87.4,77.0,68.3,73.5,68.4,58.5,100,78,42,29.86,29.68,16,2,16,0.00
2013-8-24,96.3,82.7,70.4,72.3,61.8,50.7,93,55,22,29.79,29.69,31,9,31,0.00
2013-8-25,97.3,84.4,72.8,68.9,60.4,47.8,87,50,19,29.84,29.76,29,10,29,0.00
2013-8-26,99.9,85.8,74.7,63.7,58.2,46.8,67,43,17,29.83,29.70,28,11,28,0.00
2013-8-27,99.0,83.1,70.8,61.9,57.4,46.0,73,46,18,29.76,29.67,18,7,18,0.00
2013-8-28,94.0,79.6,68.9,66.8,58.8,46.7,72,51,21,29.81,29.72,14,4,14,0.00
2013-8-29,99.7,82.5,68.9,73.8,63.6,46.2,100,60,17,29.80,29.68,17,2,17,0.00
2013-8-30,91.6,80.1,69.3,76.5,66.9,55.0,100,67,38,29.83,29.69,25,3,25,0.02
2013-8-31,93.8,78.8,67.6,74.4,67.1,57.4,100,72,31,29.82,29.62,25,3,25,0.14
2013-9-1,81.1,73.9,66.6,75.3,56.8,41.4,100,59,28,29.91,29.69,17,4,17,0.00
2013-9-2,86.1,70.9,57.6,63.1,57.8,48.5,100,67,29,29.95,29.84,12,1,12,0.00
2013-9-3,92.1,75.8,63.1,61.6,55.7,45.9,91,56,23,29.90,29.76,24,6,24,0.00
2013-9-4,94.7,78.2,67.3,61.3,56.5,49.7,77,50,23,29.96,29.80,22,6,22,0.00
2013-9-5,93.8,79.1,67.4,59.3,55.0,49.0,67,46,23,29.94,29.83,18,4,18,0.00
2013-9-6,102.5,83.3,66.8,63.0,51.3,37.7,85,42,11,29.85,29.66,21,7,21,0.00
2013-9-7,94.7,80.6,66.8,76.8,56.6,42.5,100,47,25,29.75,29.67,11,2,12,0.00
2013-9-8,94.9,80.0,68.6,80.9,59.6,29.4,100,63,10,29.72,29.57,14,2,14,0.00
2013-9-9,96.8,83.9,69.9,54.1,44.1,18.2,46,27,8,29.63,29.53,26,9,26,0.00
2013-9-10,84.5,75.5,66.6,84.3,44.7,-28.9,100,54,1,29.92,29.61,20,4,20,0.00
2013-9-11,76.0,69.8,66.3,74.2,69.0,60.0,100,98,60,30.01,29.88,13,2,13,0.00
2013-9-12,77.2,70.0,65.8,77.0,53.2,-36.8,100,76,1,30.09,30.00,14,2,14,0.01
2013-9-13,67.1,62.8,58.9,66.9,25.6,-40.9,100,39,1,30.08,29.91,14,2,14,0.00
2013-9-14,76.0,65.8,58.4,68.9,19.6,-39.0,100,23,2,29.91,29.69,21,6,21,0.00
2013-9-15,69.6,63.3,59.3,69.4,59.7,32.1,100,90,31,30.12,29.69,22,7,22,0.14
2013-9-16,59.2,57.0,55.7,59.2,57.0,55.7,100,100,100,30.17,30.04,12,2,12,0.00
2013-9-17,82.8,66.8,56.3,73.5,59.8,30.2,100,85,16,30.04,29.62,20,5,20,0.02
2013-9-18,91.8,77.1,65.5,90.3,62.0,-30.3,100,75,2,29.62,29.41,21,6,21,0.00
2013-9-19,76.7,62.7,52.3,75.6,44.0,-37.5,100,63,3,30.00,29.49,29,6,29,0.06
2013-9-20,71.8,59.5,48.2,54.8,48.1,42.5,100,70,37,30.07,29.88,13,3,13,0.00
2013-9-21,82.6,67.4,51.3,54.2,49.2,37.0,100,58,24,29.89,29.61,26,7,26,0.00
2013-9-22,82.6,69.1,56.2,53.6,49.0,44.5,74,51,28,29.63,29.47,29,8,29,0.00
2013-9-23,70.3,61.1,57.0,61.2,51.9,46.6,100,74,45,29.61,29.35,26,6,26,0.31
2013-9-24,71.5,61.8,53.1,59.6,38.2,-34.8,100,61,1,29.87,29.61,27,6,27,0.00
2013-9-25,79.2,65.8,53.1,61.6,26.2,-35.9,100,47,1,29.80,29.43,19,5,20,0.00
2013-9-26,90.1,73.8,60.9,90.1,10.8,-34.2,100,12,1,29.49,29.36,17,7,22,0.00
2013-9-27,76.1,68.4,51.3,60.7,21.6,-34.5,100,31,1,29.63,29.41,38,7,38,1.21
2013-9-28,66.3,54.6,44.8,59.0,45.3,-46.9,100,78,1,29.98,29.66,14,2,24,0.04
2013-9-29,77.2,60.9,47.1,56.5,19.5,-48.9,100,36,1,29.97,29.70,26,7,26,0.00
2013-9-30,82.8,65.3,50.7,80.1,23.5,-45.4,100,38,1,29.70,29.55,19,6,19,0.00
2013-10-1,72.0,63.9,54.5,72.0,43.3,-41.8,100,68,1,29.86,29.58,19,4,19,0.00
2013-10-2,79.4,67.3,59.5,78.8,46.9,-40.1,100,65,1,29.79,29.60,17,3,17,0.00
2013-10-3,68.8,61.3,55.3,66.1,58.7,-39.9,100,95,4,29.65,29.53,19,4,19,0.00
2013-10-4,69.6,55.8,39.1,69.3,52.1,29.1,100,88,61,29.88,29.44,22,5,22,0.00
2013-10-5,44.3,39.7,33.8,40.6,32.5,26.8,100,77,53,29.98,29.87,26,6,26,0.01
2013-10-6,62.9,50.3,39.9,40.9,29.0,18.2,100,49,20,30.04,29.93,30,7,30,0.00
2013-10-7,78.3,58.4,38.5,42.9,13.7,-40.8,100,31,1,30.04,29.79,19,5,19,0.00
2013-10-8,80.1,63.6,48.8,35.1,5.9,-41.5,59,11,1,29.79,29.59,29,9,29,0.00
2013-10-9,78.1,64.6,51.6,36.5,2.4,-41.1,55,9,1,29.73,29.60,21,6,21,0.00
2013-10-10,79.8,65.0,52.8,60.9,24.8,-38.6,100,37,1,29.73,29.43,31,6,31,0.27
2013-10-11,61.2,56.1,47.6,58.1,46.9,38.3,100,74,49,29.88,29.35,31,8,31,0.05
2013-10-12,60.1,51.2,42.3,40.3,34.9,23.5,84,56,27,30.16,29.88,12,1,12,0.00
2013-10-13,64.7,55.5,44.3,39.5,32.8,26.4,70,45,24,30.25,29.99,24,4,24,0.00
2013-10-14,66.6,54.9,44.1,62.4,50.5,38.3,100,86,50,29.99,29.47,38,6,38,0.91
2013-10-15,47.0,42.7,39.3,39.2,34.3,30.7,86,72,58,30.15,29.85,30,8,30,0.00
2013-10-16,54.7,42.8,30.4,37.0,31.9,24.7,100,70,31,30.14,29.91,17,1,17,0.00
2013-10-17,48.5,41.9,35.8,39.1,33.1,27.2,97,72,53,30.09,29.86,28,6,28,0.00
2013-10-18,48.6,39.3,32.9,41.9,30.9,20.7,100,75,35,30.12,30.00,17,2,17,0.02
2013-10-19,64.2,47.2,31.6,35.5,29.5,24.1,100,58,24,30.03,29.73,15,3,15,0.00
2013-10-20,58.1,49.4,40.9,38.8,32.8,26.7,67,53,34,30.00,29.66,25,6,25,0.00
2013-10-21,60.2,45.6,32.2,40.0,32.3,19.1,100,65,22,30.05,29.89,15,2,15,0.00
2013-10-22,57.2,50.6,42.1,43.6,37.1,28.6,100,62,35,30.02,29.87,31,5,31,0.00
2013-10-23,62.4,47.2,37.3,45.2,38.4,31.4,100,76,33,30.14,29.93,28,6,28,0.00
2013-10-24,44.6,41.5,38.0,44.1,37.7,33.1,100,87,67,30.36,30.12,11,2,11,0.00
2013-10-25,57.5,44.8,34.6,39.9,34.9,28.1,100,70,43,30.32,29.99,28,8,28,0.00
2013-10-26,57.3,48.5,42.3,44.0,33.7,17.6,99,61,22,30.23,29.99,15,4,19,0.00
2013-10-27,73.3,59.1,40.3,39.3,33.1,23.5,70,40,18,30.06,29.66,14,4,14,0.00
2013-10-28,51.4,42.5,35.9,42.3,38.6,34.9,100,87,57,30.06,29.76,22,8,22,0.00
2013-10-29,44.8,42.9,40.3,44.6,42.9,40.3,100,100,100,30.02,29.88,16,6,16,0.08
2013-10-30,53.8,44.0,37.8,53.6,44.0,36.3,100,100,98,29.95,29.69,12,2,12,0.01
2013-10-31,58.9,45.4,32.7,42.6,33.1,21.0,100,69,25,29.72,29.52,19,2,19,0.00
2013-11-1,56.2,45.9,38.5,45.1,31.2,14.1,100,63,20,30.07,29.63,31,5,31,0.00
2013-11-2,58.0,44.2,29.8,30.5,22.0,7.0,99,48,15,30.20,29.78,20,5,20,0.00
2013-11-3,68.4,49.9,39.2,37.6,28.7,22.5,72,47,18,29.83,29.40,26,8,26,0.00
2013-11-4,48.8,44.0,40.3,44.1,33.7,18.8,100,71,32,30.05,29.53,24,6,24,0.00
2013-11-5,40.5,37.4,34.3,38.5,36.7,30.6,100,98,68,30.12,29.88,24,6,24,0.40
2013-11-6,47.4,36.5,29.8,35.9,28.3,14.1,100,77,27,30.29,30.11,14,3,14,0.00
2013-11-7,52.3,40.7,32.4,38.9,31.8,17.3,100,75,25,30.43,30.07,16,3,16,0.00
2013-11-8,68.4,48.3,35.5,41.5,33.1,13.8,100,65,13,30.08,29.61,25,5,25,0.00
2013-11-9,57.8,48.0,41.1,36.7,25.3,11.0,72,44,16,30.26,29.86,11,2,11,0.00
2013-11-10,55.0,43.1,31.2,52.4,40.8,30.4,100,92,70,30.29,30.06,26,5,26,0.00
2013-11-11,45.2,32.6,23.0,45.2,26.4,4.4,100,80,43,30.79,30.00,21,7,21,0.00
2013-11-12,39.1,27.1,12.8,27.6,14.5,6.0,93,60,39,30.86,30.46,20,7,20,0.00
2013-11-13,63.9,41.9,27.0,35.7,27.7,19.4,100,66,18,30.46,29.83,24,8,24,0.00
2013-11-14,55.3,46.0,38.6,46.8,35.0,18.6,100,71,25,29.92,29.76,19,4,19,0.00
2013-11-15,56.6,45.6,36.9,42.9,34.1,22.0,100,71,26,29.80,29.35,22,5,22,0.00
2013-11-16,62.4,48.3,35.2,43.1,22.4,-3.1,100,50,7,29.36,29.20,21,3,21,0.00
2013-11-17,50.5,42.7,29.8,44.9,17.6,-6.5,100,42,10,30.07,29.30,32,6,32,0.04
2013-11-18,59.0,41.7,30.7,9.0,-2.6,-30.0,39,18,2,30.20,30.00,28,6,28,0.00
2013-11-19,57.5,44.2,31.9,28.7,15.4,4.1,55,33,15,30.01,29.65,28,10,28,0.00
2013-11-20,60.1,47.3,36.0,41.3,25.3,0.9,100,51,9,29.94,29.61,19,5,19,0.00
2013-11-21,35.3,20.9,14.6,33.0,19.5,9.3,100,95,76,30.73,29.94,26,12,35,0.00
2013-11-22,32.9,21.1,12.1,16.5,9.4,-6.2,90,63,20,30.77,30.64,17,3,17,0.00
2013-11-23,24.8,19.0,14.9,17.6,14.4,6.9,100,83,66,30.87,30.67,12,4,12,0.00
2013-11-25,42.2,35.9,29.4,16.5,14.0,10.6,55,41,29,30.26,30.16,19,3,19,0.00
2013-11-26,31.9,27.1,15.6,19.9,11.2,-0.3,73,52,27,30.46,30.25,28,7,28,0.00
2013-11-27,54.8,32.0,13.3,25.8,12.4,-0.6,65,46,19,30.46,29.95,25,7,25,0.00
2013-11-28,38.3,27.7,20.3,27.3,22.7,18.4,100,83,49,30.42,30.06,16,4,16,0.00
2013-11-29,43.5,29.4,18.8,31.0,23.1,18.1,100,80,43,30.41,30.08,19,4,19,0.00
2013-11-30,57.8,41.1,28.8,32.2,23.6,13.9,100,56,18,30.12,29.98,10,1,10,0.00
2013-12-1,52.8,38.3,27.0,32.7,25.8,18.3,100,66,27,30.10,29.74,12,2,12,0.00
2013-12-2,63.5,47.7,37.0,24.7,21.4,15.8,56,37,16,29.74,29.42,19,3,19,0.00
2013-12-3,49.4,34.2,22.5,34.3,25.0,3.8,100,74,29,29.77,29.37,30,7,30,0.00
2013-12-4,22.2,14.5,8.4,17.6,-0.3,-58.6,100,33,2,30.26,29.74,30,12,37,0.00
2013-12-5,14.0,7.1,1.3,13.8,5.4,0.0,100,58,100,30.51,30.25,21,5,21,0.00
2013-12-6,11.1,4.2,-1.4,11.1,3.5,0.0,100,46,100,30.75,30.50,12,4,12,0.00
2013-12-7,9.5,3.5,-2.8,9.5,-6.8,-80.4,100,40,1,30.75,30.30,10,2,10,0.00
2013-12-8,12.9,8.8,0.9,12.2,3.4,-8.9,97,79,43,30.31,30.03,11,1,11,0.00
2013-12-9,18.6,6.8,-5.2,5.7,-3.3,-13.1,73,63,40,30.42,30.17,17,4,17,0.00
2013-12-10,36.5,24.6,11.7,20.5,11.6,3.2,73,58,32,30.32,30.03,18,4,18,0.00
2013-12-11,24.5,17.9,7.7,13.5,8.3,-0.3,81,66,56,30.64,30.32,19,6,19,0.00
2013-12-12,46.8,29.4,14.8,21.2,13.7,7.3,76,55,22,30.45,29.96,12,3,12,0.00
2013-12-13,38.5,26.9,17.7,24.2,17.6,10.9,95,69,48,30.12,29.79,14,3,14,0.00
2013-12-14,44.8,29.6,15.9,26.6,18.3,11.2,100,66,35,30.26,30.08,21,4,21,0.00
2013-12-15,56.2,41.7,32.5,21.0,18.5,15.0,59,41,20,30.08,29.87,17,3,17,0.00
2013-12-16,58.6,42.4,31.5,26.5,19.6,14.9,77,43,19,30.15,29.90,11,2,14,0.00
2013-12-17,47.0,36.1,27.0,28.6,21.7,16.8,97,58,30,30.33,29.98,17,5,17,0.00
2013-12-18,69.9,46.6,31.5,23.3,16.5,10.3,56,34,10,29.99,29.58,14,5,14,0.00
2013-12-19,36.6,26.4,10.5,28.5,20.1,4.7,100,78,61,30.01,29.60,26,9,26,0.00
2013-12-20,20.8,13.6,9.5,8.7,5.1,0.9,80,68,56,30.08,29.87,26,5,26,0.00
2013-12-21,30.7,19.5,10.0,14.5,9.5,3.7,80,65,45,29.95,29.72,12,3,12,0.00
2013-12-22,29.1,18.9,11.1,15.3,11.3,6.2,95,74,42,30.40,29.95,19,5,19,0.00
2013-12-23,14.3,10.4,6.1,12.7,2.5,-1.7,94,70,54,30.62,30.38,13,4,13,0.00
2013-12-24,38.6,24.3,10.2,34.2,21.5,5.0,100,90,70,30.39,30.05,27,8,27,0.00
2013-12-25,41.5,30.6,21.8,28.1,20.7,15.0,100,69,36,30.37,30.21,19,3,19,0.00
2013-12-26,53.5,35.2,20.8,20.9,16.7,12.2,75,50,24,30.24,30.11,20,4,20,0.00
2013-12-27,59.9,41.4,27.8,23.8,20.4,17.5,71,46,20,30.21,29.97,18,4,18,0.00
2013-12-28,58.6,35.8,12.8,27.3,18.8,1.3,74,53,22,30.20,29.67,40,8,40,0.00
2013-12-29,21.0,11.9,5.0,2.7,-1.9,-5.0,70,54,33,30.51,30.18,36,7,37,0.00
2013-12-30,48.5,29.1,14.3,26.1,15.0,-0.5,80,57,29,30.26,30.03,21,4,21,0.00